This is the latest recevied weather packets stored in our database for station/object AC1IX. If no packets are shown the sender has not sent any weather packets the latest 10 day(s).
| Time | Temp. | Humidity | Pressure | Rain* | Wind** | Luminosity | Snow |
|---|---|---|---|---|---|---|---|
| 1777996377 | 23.89° C | 49% | 1008.4 hPa | 0 mm | - | 645 W/m² | - |
| 1777996074 | 23.89° C | 47% | 1008.2 hPa | 0 mm | - | 262 W/m² | - |
| 1777995771 | 24.44° C | 48% | 1008.2 hPa | 0 mm | - | 513 W/m² | - |
| 1777995467 | 23.89° C | 48% | 1008.4 hPa | 0 mm | - | 466 W/m² | - |
| 1777995164 | 23.33° C | 49% | 1008.7 hPa | 0 mm | - | 425 W/m² | - |
| 1777994862 | 22.78° C | 53% | 1008.7 hPa | 0 mm | - | 334 W/m² | - |
| 1777994558 | 22.78° C | 51% | 1008.7 hPa | 0 mm | - | 296 W/m² | - |
| 1777994258 | 22.78° C | 52% | 1008.9 hPa | 0 mm | - | 347 W/m² | - |
| 1777993956 | 22.78° C | 53% | 1008.7 hPa | 0 mm | - | 203 W/m² | - |
| 1777993653 | 23.33° C | 50% | 1008.7 hPa | 0 mm | - | 212 W/m² | - |
| 1777993350 | 23.33° C | 52% | 1009.1 hPa | 0 mm | - | 307 W/m² | - |
| 1777993050 | 23.33° C | 52% | 1009.1 hPa | 0 mm | - | 420 W/m² | - |
| 1777992749 | 22.78° C | 53% | 1009 hPa | 0 mm | - | 686 W/m² | - |
| 1777992446 | 22.22° C | 53% | 1009.1 hPa | 0 mm | - | 315 W/m² | - |
| 1777992144 | 22.22° C | 52% | 1009.3 hPa | 0 mm | - | 254 W/m² | - |
| 1777991841 | 21.67° C | 54% | 1009.2 hPa | 0 mm | - | 367 W/m² | - |
| 1777991538 | 21.67° C | 55% | 1009.2 hPa | 0 mm | - | 317 W/m² | - |
| 1777991235 | 21.67° C | 54% | 1009.4 hPa | 0 mm | - | 212 W/m² | - |
| 1777990932 | 21.67° C | 58% | 1009.1 hPa | 0 mm | - | 220 W/m² | - |
| 1777990630 | 21.67° C | 55% | 1009.1 hPa | 0 mm | - | 223 W/m² | - |
| 1777990327 | 21.67° C | 55% | 1009.3 hPa | 0 mm | - | 258 W/m² | - |
| 1777990023 | 22.78° C | 52% | 1009 hPa | 0 mm | - | 274 W/m² | - |
| 1777989720 | 22.22° C | 54% | 1009.2 hPa | 0 mm | - | 623 W/m² | - |
| 1777989416 | 22.78° C | 55% | 1008.9 hPa | 0 mm | - | 604 W/m² | - |
| 1777989113 | 21.11° C | 64% | 1009.1 hPa | 0 mm | - | 758 W/m² | - |
* Rain latest hour (hover to see other rain measurements)
** Current wind speed in m/s (hover to see current wind gust speed)